Mayport Ns (Adm David L. Mcdonald Field) Airport
KNRB : now visible

Airfield :











YOU CAN JOIN US ON...

 
LOGIN :

Register | Disclaimer

   EN    FR    IT 

 









Legend :    VFR   Marginal VFR   IFR   Intensive IFR   Very Intensive IFR
Visi :
Ceiling :
>= 8 km
>= 3000ft
5 to 8 km
1000 to 3000 ft
1500m to 5 km
500 to 1000 ft
800 to 1500m
200 to 500 ft
< 800m
< 200 ft
Symbols :   Thunderstorms  Fog  Heavy snow  Heavy precipitations  Wind > 20 kt






- Airport Elevation : 15 ft


KNRB - Mayport Ns (Adm David L. Mcdonald Field)

CURRENT METAR :
  • 061552Z 00000KT 10SM FEW020 SCT150 SCT250 19/12 A3021 RMK AO2 SLP227 T01890117 $

EXPIRED METARs :
  • 061452Z 28005KT 10SM FEW020 SCT150 SCT250 14/10 A3023 RMK AO2 SLP234 T01440100 53010 $
  • 061352Z 28003KT 10SM FEW020 SCT250 12/10 A3022 RMK AO2 SLP231 T01220100 $

TAF TAF KNRB
Valid from the 06 at 15:00 until the 07 at 15:00 UTC


0615/0715 28005KT 9999 FEW025 SCT150 SCT250 QNH3018INS
FM061700 06006KT 9999 FEW030 BKN250 QNH3012INS
FM070000 VRB03KT 9999 SCT250 QNH3014INS T22/0620Z T10/0712Z FN20021



MET'MAP, your aeronautical weather chart ! - Copyright ORBIFLY December 2007 - Disclaimer

ORBIFLY MET'MAP TEAM :

Programming & Development : Alexandra Zaïnal
Concept & original design : Baudouin d'Aumeries
Assistance for programming : Marc-Olivier Méhu
Technical & hardware support : Manuel Goepfert

Contact : metmap@orbifly.com




SOURCES & CREDITS :

   NOAA       Earth
Advisory